Terminal Aerodrome Forecast
Issued by NWS

Home | Current Version | Previous Version | Text Only | Print | Product List | Glossary On
Versions: 1 2 3 4 5 6 7 8 9 10 11 12 13 14 15 16 17 18 19 20 21 22 23 24 25 26 27 28 29 30 31 32 33 34 35 36
000
FTUS45 KBOU 031124
TAFBJC
TAF
KBJC 031124Z 0312/0412 VRB04KT P6SM SCT110 BKN200
     FM031700 14009KT P6SM SCT100 BKN160
     FM032100 15012G20KT P6SM VCTS SCT070CB BKN100 OVC150
      TEMPO 0321/0401 VRB20G35KT 5SM TSRA BKN060CB OVC090
     FM040100 30013G18KT P6SM VCSH SCT080 BKN120
     FM040500 26009KT P6SM FEW130 SCT200=

USA.gov is the U.S. government's official web portal to all federal, state and local government web resources and services.